Viewfield Airstrip

GB-0374 · Scotland, United Kingdom

METAR history GB-0374 · Viewfield Airstrip

Below you see METARs of the last few days. Select a year to browse through older METARs, from the year 2007 onwards.

November 26, 2022

Time Code Weather Temp. Visibility Ceiling Wind METAR/SPECI
19:50
V
11 °C 10 km+ - 160° 160° 17 kt METAR EGQS 261950Z 16017KT 9999 FEW030 SCT110 11/07 Q1001 RMK BLU
18:50
V
11 °C 10 km+ - 160° 160° 15 - 25 kt METAR EGQS 261850Z 16015G25KT 9999 FEW032 SCT090 11/08 Q1002 RMK BLU
17:50
V
11 °C 10 km+ 4,000 ft 140° 140° 12 kt METAR EGQS 261750Z 14012KT 9999 FEW032 BKN040 BKN090 11/08 Q1003 RMK BLU
16:50
V
11 °C 10 km+ - 110° 110° 7 kt METAR EGQS 261650Z 11007KT 9999 FEW020 SCT045 11/08 Q1004 RMK BLU
15:50
V
12 °C 10 km+ - 190° 190° 13 - 23 kt METAR EGQS 261550Z 19013G23KT 9999 FEW020 12/07 Q1005 RMK BLU
15:20
V
12 °C 10 km+ - 200° 200° 10 kt METAR EGQS 261520Z 20010KT 9999 FEW022 12/07 Q1005 NOSIG RMK BLU BLU
14:50
V
13 °C 10 km+ - 170° 170° 14 kt METAR EGQS 261450Z 17014KT 9999 FEW022 13/08 Q1005 NOSIG RMK BLU BLU
14:20
V
13 °C 10 km+ - 180° 180° 15 kt METAR EGQS 261420Z 18015KT 9999 FEW023 13/08 Q1005 NOSIG RMK BLU BLU
13:50
V
14 °C 10 km+ - 170° 170° 17 - 27 kt METAR EGQS 261350Z 17017G27KT 9999 FEW022 14/08 Q1006 NOSIG RMK BLU BLU
13:20
V
14 °C 10 km+ - 180° 180° 18 kt METAR EGQS 261320Z 18018KT 9999 FEW022 14/08 Q1006 NOSIG RMK BLU BLU
12:50
V
13 °C 10 km+ - 180° 180° 18 kt METAR EGQS 261250Z 18018KT 9999 FEW022 13/08 Q1006 NOSIG RMK BLU BLU
12:20
V
13 °C 10 km+ - 170° 170° 16 kt METAR EGQS 261220Z 17016KT 9999 FEW022 SCT070 13/08 Q1007 NOSIG RMK BLU BLU
11:50
V
12 °C 10 km+ 9,000 ft 150° 150° 12 kt METAR EGQS 261150Z 15012KT 9999 FEW030 SCT070 BKN090 12/07 Q1008 NOSIG RMK BLU BLU
11:20
V
11 °C 10 km+ 7,000 ft 150° 150° 10 kt METAR EGQS 261120Z 15010KT 9999 -RA FEW026 BKN070 11/07 Q1008 NOSIG RMK BLU BLU
10:50
V
12 °C 10 km+ 7,000 ft 170° 170° 7 kt METAR EGQS 261050Z 17007KT 9999 -RA FEW026 BKN070 12/07 Q1009 NOSIG RMK BLU BLU
10:20
V
12 °C 10 km+ 9,000 ft 170° 170° 9 kt METAR EGQS 261020Z 17009KT 9999 FEW026 BKN090 12/07 Q1009 NOSIG RMK BLU BLU
09:50
V
10 °C 10 km+ 11,000 ft 140° 140° 6 kt METAR EGQS 260950Z 14006KT 9999 FEW026 BKN110 10/06 Q1009 RMK BLU
08:50
V
10 °C 10 km+ 13,000 ft 160° 160° 6 kt METAR EGQS 260850Z 16006KT 9999 FEW030 BKN130 10/06 Q1009 RMK BLU
07:50
V
9 °C 10 km+ 13,000 ft 140° 140° 5 kt METAR EGQS 260750Z 14005KT 9999 FEW030 BKN130 09/06 Q1010 RMK BLU
06:50
V
10 °C 10 km+ - 150° 150° 8 kt METAR EGQS 260650Z 15008KT CAVOK 10/06 Q1010 RMK BLU
05:50
V
9 °C 10 km+ - 140° 140° 11 kt METAR EGQS 260550Z 14011KT CAVOK 09/05 Q1011 RMK BLU
04:50
V
10 °C 10 km+ 10,000 ft 180° 180° 9 kt METAR EGQS 260450Z 18009KT 9999 VCSH BKN100 10/05 Q1011 RMK BLU
03:50
V
10 °C 10 km+ - 180° 180° 7 kt METAR EGQS 260350Z 18007KT CAVOK 10/05 Q1011 RMK BLU
02:50
V
10 °C 10 km+ - 200° 200° 6 kt METAR EGQS 260250Z 20006KT CAVOK 10/06 Q1011 RMK BLU
02:20
V
9 °C 10 km+ 8,300 ft 180° 180° 6 kt METAR EGQS 260220Z AUTO 18006KT 9999 BKN083/// BKN100/// 09/05 Q1011
01:50
V
8 °C 10 km+ - 170° 170° 7 kt METAR EGQS 260150Z 17007KT CAVOK 08/05 Q1011 RMK BLU
00:50
V
8 °C 10 km+ - 230° 230° 9 kt METAR EGQS 260050Z 23009KT CAVOK 08/05 Q1011 RMK BLU

November 25, 2022

Time Code Weather Temp. Visibility Ceiling Wind METAR/SPECI
23:50
V
6 °C 10 km+ - 190° 190° 5 kt METAR EGQS 252350Z 19005KT CAVOK 06/03 Q1010 RMK BLU
22:50
V
7 °C 10 km+ - 220° 220° 10 kt METAR EGQS 252250Z 22010KT CAVOK 07/04 Q1010 RMK BLU
21:50
V
7 °C 10 km+ - 200° 200° 8 kt METAR EGQS 252150Z 20008KT CAVOK 07/03 Q1009 RMK BLU
20:50
V
8 °C 10 km+ - 230° 230° 11 kt METAR EGQS 252050Z 23011KT CAVOK 08/04 Q1008 RMK BLU
19:50
V
8 °C 10 km+ - 220° 220° 11 kt METAR EGQS 251950Z 22011KT CAVOK 08/04 Q1007 RMK BLU
19:20
V
8 °C 10 km+ - 240° 240° 13 kt METAR EGQS 251920Z AUTO 24013KT 9999 FEW085/// 08/05 Q1006
18:50
V
8 °C 10 km+ - 230° 230° 12 kt METAR EGQS 251850Z 23012KT CAVOK 08/05 Q1006 RMK BLU
17:50
V
8 °C 10 km+ - 230° 230° 11 kt METAR EGQS 251750Z 23011KT 9999 FEW042 08/04 Q1005 RMK BLU
17:20
V
7 °C 10 km+ - 230° 230° 12 kt METAR EGQS 251720Z 23012KT CAVOK 07/04 Q1004 NOSIG RMK BLU BLU
16:50
V
6 °C 10 km+ - 240° 240° 7 kt METAR EGQS 251650Z 24007KT CAVOK 06/02 Q1003 NOSIG RMK BLU BLU
16:20
V
7 °C 10 km+ - 230° 230° 7 kt METAR EGQS 251620Z 23007KT CAVOK 07/03 Q1003 NOSIG RMK BLU BLU
15:50
V
8 °C 10 km+ - 230° 230° 13 kt METAR EGQS 251550Z 23013KT CAVOK 08/04 Q1002 NOSIG RMK BLU BLU
15:20
V
8 °C 10 km+ - 220° 220° 14 kt METAR EGQS 251520Z 22014KT CAVOK 08/04 Q1001 NOSIG RMK BLU BLU
14:50
V
9 °C 10 km+ - 220° 220° 12 kt METAR EGQS 251450Z 22012KT CAVOK 09/04 Q1001 NOSIG RMK BLU BLU
14:20
V
9 °C 10 km+ - 230° 230° 13 kt METAR EGQS 251420Z 23013KT 9999 FEW030 09/05 Q1000 NOSIG RMK BLU BLU
13:50
V
9 °C 10 km+ - 240° 240° 14 kt METAR EGQS 251350Z 24014KT 9999 FEW030 09/05 Q1000 NOSIG RMK BLU BLU
13:20
V
9 °C 10 km+ - 230° 230° 19 kt METAR EGQS 251320Z 23019KT 9999 FEW030CB 09/05 Q0999 NOSIG RMK BLU BLU
12:50
V
9 °C 10 km+ - 210° 210° 16 kt METAR EGQS 251250Z 21016KT 9999 FEW030CB SCT120 09/06 Q0998 TEMPO 7000 SHRA RMK BLU TEMPO WHT
12:20
V
8 °C 10 km+ - 190° 190° 20 - 32 kt METAR EGQS 251220Z 19020G32KT 9999 FEW030 SCT035CB 08/06 Q0997 TEMPO 7000 SHRA RMK BLU TEMPO WHT
11:50
V
9 °C 10 km+ 3,500 ft 210° 210° 20 kt METAR EGQS 251150Z 21020KT 9999 7000SW SHRA FEW030 BKN035CB 09/05 Q0998 TEMPO 9999 NSW RMK WHT TEMPO BLU
11:36
V
9 °C 9 km 8,000 ft 210° 210° 19 kt METAR EGQS 251136Z 21019KT 9000 7000SW SHRA SCT040CB BKN080 09/05 Q0997 TEMP0 9999 NSW RMK WHT TEMP0 BLU
11:20
V
9 °C 9 km 10,000 ft 200° 200° 18 kt METAR EGQS 251120Z 20018KT 9000 SHRA SCT040CB BKN100 09/04 Q0997 TEMPO 7000 SHRA RMK BLU TEMPO WHT
10:50
V
9 °C 10 km+ 10,000 ft 190° 190° 15 - 29 kt METAR EGQS 251050Z 19015G29KT 9999 FEW030CB SCT050 BKN100 09/03 Q0997 NOSIG RMK BLU BLU
10:20
V
8 °C 10 km+ 9,000 ft 190° 190° 13 kt METAR EGQS 251020Z 19013KT 9999 -RA FEW030CB SCT050 BKN090 08/03 Q0997 NOSIG RMK BLU BLU
09:50
V
8 °C 10 km+ 8,500 ft 190° 190° 15 kt METAR EGQS 250950Z 19015KT 9999 FEW025 BKN085 08/03 Q0996 NOSIG RMK BLU BLU
09:20
V
8 °C 10 km+ 18,000 ft 190° 190° 14 kt METAR EGQS 250920Z 19014KT 9999 FEW025 BKN180 08/03 Q0996 NOSIG RMK BLU BLU
08:50
V
6 °C 10 km+ - 180° 180° 11 kt METAR EGQS 250850Z 18011KT 9999 FEW025 SCT140 06/02 Q0996 NOSIG RMK BLU BLU
08:20
V
6 °C 10 km+ - 180° 180° 12 kt METAR EGQS 250820Z 18012KT 9999 FEW025 SCT190 06/02 Q0996 NOSIG RMK BLU BLU
07:50
V
7 °C 10 km+ - 190° 190° 14 kt METAR EGQS 250750Z 19014KT 9999 FEW030 07/02 Q0996 NOSIG RMK BLU BLU
06:50
V
6 °C 10 km+ - 200° 200° 9 kt METAR EGQS 250650Z 20009KT 9999 FEW030 06/02 Q0995 NOSIG RMK BLU BLU
05:50
V
7 °C 10 km+ - 200° 200° 12 kt METAR EGQS 250550Z 20012KT 9999 SKC 07/02 Q0994 RMK BLU
04:50
V
7 °C 10 km+ - 200° 200° 11 kt METAR EGQS 250450Z 20011KT 9999 SKC 07/03 Q0993 RMK BLU
04:20
V
7 °C 10 km+ - 210° 210° 14 kt METAR EGQS 250420Z AUTO 21014KT 9999 NCD 07/03 Q0992
03:50
V
8 °C 10 km+ - 210° 210° 15 kt METAR EGQS 250350Z 21015KT 9999 FEW045 SCT200 08/03 Q0991 RMK BLU
03:20
V
8 °C 10 km+ - 210° 210° 16 kt METAR EGQS 250320Z AUTO 21016KT 9999 FEW190/// 08/03 Q0990
02:50
V
8 °C 10 km+ - 220° 220° 16 kt METAR EGQS 250250Z 22016KT CAVOK 08/03 Q0990 RMK BLU
01:50
V
9 °C 10 km+ 13,000 ft 210° 210° 19 kt METAR EGQS 250150Z 21019KT 9999 FEW042 SCT090 BKN130 09/03 Q0988 RMK BLU
00:50
V
9 °C 10 km+ - 170° 170° 13 kt METAR EGQS 250050Z 17013KT CAVOK 09/03 Q0987 RMK BLU

November 24, 2022

Time Code Weather Temp. Visibility Ceiling Wind METAR/SPECI
23:50
V
8 °C 10 km+ - 150° 150° 13 kt METAR EGQS 242350Z 15013KT CAVOK 08/03 Q0987 RMK BLU
22:50
V
7 °C 10 km+ - 140° 140° 12 kt METAR EGQS 242250Z 14012KT 9999 FEW045 07/03 Q0987 RMK BLU
21:50
V
7 °C 10 km+ - 120° 120° 6 kt METAR EGQS 242150Z 12006KT 9999 SKC 07/02 Q0987 RMK BLU
20:50
V
7 °C 10 km+ - 120° 120° 5 kt METAR EGQS 242050Z 12005KT 9999 SKC 07/03 Q0986 RMK BLU
19:50
V
7 °C 10 km+ - 130° 130° 8 kt METAR EGQS 241950Z 13008KT CAVOK 07/04 Q0987 NOSIG RMK BLU BLU
19:20
V
7 °C 10 km+ - 120° 120° 5 kt METAR EGQS 241920Z 12005KT CAVOK 07/04 Q0987 NOSIG RMK BLU BLU
18:50
V
7 °C 10 km+ - 160° 160° 9 kt METAR EGQS 241850Z 16009KT CAVOK 07/04 Q0986 NOSIG RMK BLU BLU
18:20
V
8 °C 10 km+ - 170° 170° 10 kt METAR EGQS 241820Z 17010KT CAVOK 08/04 Q0987 NOSIG RMK BLU BLU
17:50
V
9 °C 10 km+ - 160° 160° 11 kt METAR EGQS 241750Z 16011KT CAVOK 09/05 Q0986 NOSIG RMK BLU BLU
17:20
V
10 °C 10 km+ 20,000 ft 150° 150° 20 kt METAR EGQS 241720Z 15020KT 9999 SCT030 BKN200 10/05 Q0986 NOSIG RMK BLU BLU
16:50
V
9 °C 10 km+ 15,000 ft 150° 150° 17 kt METAR EGQS 241650Z 15017KT 9999 SCT028 BKN150 09/05 Q0987 NOSIG RMK BLU BLU
16:20
V
9 °C 10 km+ 17,000 ft 140° 140° 20 kt METAR EGQS 241620Z 14020KT 9999 FEW027 SCT035 BKN170 09/05 Q0986 NOSIG RMK BLU BLU
15:50
V
9 °C 10 km+ 15,000 ft 140° 140° 19 kt METAR EGQS 241550Z 14019KT 9999 FEW027 SCT034 BKN150 09/05 Q0987 NOSIG RMK BLU BLU
15:20
V
9 °C 10 km+ 18,000 ft 140° 140° 20 kt METAR EGQS 241520Z 14020KT 9999 FEW027 SCT100 BKN180 09/05 Q0987 NOSIG RMK BLU BLU
14:50
V
9 °C 10 km+ 13,000 ft 130° 130° 17 kt METAR EGQS 241450Z 13017KT 9999 FEW028 SCT090 BKN130 09/05 Q0987 NOSIG RMK BLU BLU
14:20
V
9 °C 10 km+ 10,000 ft 140° 140° 16 kt METAR EGQS 241420Z 14016KT 9999 -RA FEW087 BKN100 09/05 Q0987 NOSIG RMK BLU BLU
13:50
V
8 °C 10 km+ 10,000 ft 140° 140° 16 kt METAR EGQS 241350Z 14016KT 9999 FEW025 BKN100 BKN180 08/04 Q0988 NOSIG RMK BLU BLU
13:20
V
8 °C 10 km+ 18,000 ft 110° 110° 10 kt METAR EGQS 241320Z 11010KT 9999 FEW022 SCT120 BKN180 08/04 Q0988 NOSIG RMK BLU BLU
12:50
V
8 °C 10 km+ 18,000 ft 110° 110° 10 kt METAR EGQS 241250Z 11010KT 9999 FEW022 SCT120 BKN180 08/03 Q0989 NOSIG RMK BLU BLU
12:20
V
8 °C 10 km+ 18,000 ft 120° 120° 6 kt METAR EGQS 241220Z 12006KT 9999 FEW022 SCT120 BKN180 08/03 Q0989 NOSIG RMK BLU BLU
11:50
V
8 °C 10 km+ 25,000 ft 120° 120° 5 kt METAR EGQS 241150Z 12005KT 9999 FEW024 SCT080 BKN250 08/03 Q0989 NOSIG RMK BLU BLU
11:20
V
8 °C 10 km+ - 120° 120° 8 kt METAR EGQS 241120Z 12008KT 9999 FEW024 08/02 Q0990 NOSIG RMK BLU BLU
10:50
V
8 °C 10 km+ - 120° 120° 5 kt METAR EGQS 241050Z 12005KT 9999 FEW024 08/03 Q0989 NOSIG RMK BLU BLU
10:20
V
7 °C 10 km+ - 140° 140° 6 kt METAR EGQS 241020Z 14006KT 9999 FEW024 07/02 Q0990 NOSIG RMK BLU BLU
09:50
V
7 °C 10 km+ - 130° 130° 7 kt METAR EGQS 240950Z 13007KT 9999 FEW024 07/02 Q0990 NOSIG RMK BLU BLU

We and third parties follow your internet behavior on our website with cookies. If you continue, we assume you agree with our cookie policy.